Terminal Aerodrome Forecast
Issued by NWS Mt. Holly, NJ

Home | Current Version | Previous Version | Text Only | Print | Product List | Glossary On
Versions: 1 2 3 4 5 6 7 8 9 10 11 12 13 14 15 16 17 18
000
FTAK31 PANC 282325
TAFABE
TAF
PABE 282325Z 2900/2924 07012KT P6SM FEW060 SCT250
     FM290600 36007KT P6SM SCT045 BKN060
     FM292000 09010KT P6SM BKN040=

USA.gov is the U.S. government's official web portal to all federal, state and local government web resources and services.